CES250 LEBL-ZSPD
Flight info
| Callsign | CES250 |
|---|---|
| Flight time | N/A |
| Altitude | 32000 |
| Route | DIPES DCT TOSNU DCT LAPIT N725 OSPOK DCT NOLVI/N0499F330 DCT ORKUM/N0493F340 DCT ELSAG DCT POKAV/N0497F330 DCT SOR DCT PEREN DCT ALX DCT EKI DCT INB DCT SIN DCT ROLIN/N0494F350 DCT LAGAS M747 LUSAL N199 RASAM L88 METKA B476 DARVA/K0898F350 T898 OGOLI N193 SR L163 TISIB L141 DIPAX/K0904F370 L141 KAMUD/K0898S1130 W186 SADAN W187 TUSLI W112 VIKUP W191 DNC W565 BIGUX W214 XOGAB/K0891S1190 W214 HO DCT 343580N1083160E 342270N1083520E 340320N1084070E DCT UGSUT DCT 334410N1094200E 333220N1105190E 332320N1111680E DCT FYG B208 HFE R343 SASAN SAS82A |
| Aircraft | A359/H-SDE2E3GHIJ3J4J5LM1ORWXY/LB1D1 |
Departure
| Time | 2026-05-04 18:39 |
|---|---|
| Airport | Josep Tarradellas Barcelona-El Prat Airport (LEBL) |
Arrival
| Time | N/A |
|---|---|
| Airport | Shanghai Pudong International Airport (ZSPD) |
| Time | Latitude | Longitude | Altitude | Speed | Heading |
|---|---|---|---|---|---|
| 2026-05-04 18:05 | 41.28753 | 2.07765 | 25 ft | 0 kts | 298° |
| 2026-05-04 18:28 | 41.28753 | 2.07767 | 52 ft | 2 kts | 298° |
| 2026-05-04 18:28 | 41.28741 | 2.07796 | 30 ft | 4 kts | 300° |
| 2026-05-04 18:28 | 41.28727 | 2.07827 | 30 ft | 4 kts | 301° |
| 2026-05-04 18:29 | 41.28713 | 2.07857 | 29 ft | 4 kts | 302° |
| 2026-05-04 18:29 | 41.28701 | 2.07882 | 28 ft | 4 kts | 313° |
| 2026-05-04 18:29 | 41.28681 | 2.07899 | 26 ft | 4 kts | 6° |
| 2026-05-04 18:29 | 41.28661 | 2.07884 | 28 ft | 4 kts | 64° |
| 2026-05-04 18:30 | 41.28647 | 2.07843 | 23 ft | 0 kts | 65° |
| 2026-05-04 18:33 | 41.28655 | 2.07866 | 25 ft | 6 kts | 66° |
| 2026-05-04 18:34 | 41.28668 | 2.07930 | 24 ft | 8 kts | 89° |
| 2026-05-04 18:34 | 41.28667 | 2.07945 | 24 ft | 0 kts | 93° |
| 2026-05-04 18:34 | 41.28644 | 2.07978 | 26 ft | 9 kts | 140° |
| 2026-05-04 18:34 | 41.28630 | 2.08043 | 26 ft | 9 kts | 76° |
| 2026-05-04 18:35 | 41.28668 | 2.08161 | 25 ft | 15 kts | 66° |
| 2026-05-04 18:35 | 41.28709 | 2.08284 | 27 ft | 15 kts | 66° |
| 2026-05-04 18:35 | 41.28753 | 2.08412 | 25 ft | 15 kts | 66° |
| 2026-05-04 18:35 | 41.28794 | 2.08532 | 26 ft | 17 kts | 65° |
| 2026-05-04 18:36 | 41.28853 | 2.08703 | 25 ft | 21 kts | 65° |
| 2026-05-04 18:36 | 41.28928 | 2.08920 | 24 ft | 31 kts | 65° |
| 2026-05-04 18:36 | 41.29017 | 2.09176 | 27 ft | 24 kts | 66° |
| 2026-05-04 18:36 | 41.29086 | 2.09379 | 25 ft | 24 kts | 65° |
| 2026-05-04 18:37 | 41.29154 | 2.09577 | 26 ft | 23 kts | 65° |
| 2026-05-04 18:37 | 41.29221 | 2.09770 | 26 ft | 23 kts | 65° |
| 2026-05-04 18:37 | 41.29290 | 2.09954 | 27 ft | 22 kts | 60° |
| 2026-05-04 18:37 | 41.29355 | 2.10136 | 25 ft | 22 kts | 67° |
| 2026-05-04 18:38 | 41.29308 | 2.10283 | 23 ft | 20 kts | 153° |
| 2026-05-04 18:38 | 41.29203 | 2.10263 | 25 ft | 15 kts | 233° |
| 2026-05-04 18:38 | 41.29127 | 2.10052 | 25 ft | 44 kts | 245° |
| 2026-05-04 18:38 | 41.28931 | 2.09482 | 28 ft | 91 kts | 246° |
| 2026-05-04 18:39 | 41.28608 | 2.08536 | 28 ft | 132 kts | 245° |
| 2026-05-04 18:39 | 41.28178 | 2.07298 | 178 ft | 150 kts | 245° |
| 2026-05-04 18:39 | 41.27701 | 2.06140 | 665 ft | 137 kts | 232° |
| 2026-05-04 18:39 | 41.26879 | 2.05435 | 697 ft | 156 kts | 186° |
| 2026-05-04 18:40 | 41.25766 | 2.05367 | 1040 ft | 163 kts | 185° |
| 2026-05-04 18:40 | 41.24604 | 2.05255 | 1279 ft | 174 kts | 189° |
| 2026-05-04 18:40 | 41.23347 | 2.05023 | 1455 ft | 190 kts | 191° |
| 2026-05-04 18:40 | 41.21990 | 2.04688 | 1727 ft | 203 kts | 195° |
| 2026-05-04 18:41 | 41.20705 | 2.03924 | 2102 ft | 206 kts | 219° |
| 2026-05-04 18:41 | 41.19851 | 2.02370 | 2226 ft | 221 kts | 252° |
| 2026-05-04 18:41 | 41.19817 | 2.00299 | 2523 ft | 232 kts | 283° |
| 2026-05-04 18:41 | 41.20350 | 1.98252 | 3030 ft | 235 kts | 288° |
| 2026-05-04 18:42 | 41.20953 | 1.96229 | 3516 ft | 236 kts | 288° |
| 2026-05-04 18:42 | 41.21552 | 1.94199 | 3986 ft | 237 kts | 288° |
| 2026-05-04 18:42 | 41.22152 | 1.92145 | 4450 ft | 239 kts | 288° |
| 2026-05-04 18:42 | 41.23001 | 1.90254 | 4875 ft | 246 kts | 310° |
| 2026-05-04 18:43 | 41.24375 | 1.88827 | 5216 ft | 257 kts | 323° |
| 2026-05-04 18:43 | 41.25921 | 1.87564 | 5588 ft | 263 kts | 325° |
| 2026-05-04 18:43 | 41.27496 | 1.86299 | 6077 ft | 265 kts | 324° |
| 2026-05-04 18:43 | 41.29088 | 1.85030 | 6591 ft | 268 kts | 327° |
| 2026-05-04 18:44 | 41.30852 | 1.84125 | 7056 ft | 276 kts | 343° |
| 2026-05-04 18:44 | 41.31496 | 1.83992 | 7213 ft | 280 kts | 351° |
| 2026-05-04 18:44 | 41.34621 | 1.85257 | 7948 ft | 299 kts | 40° |
| 2026-05-04 18:44 | 41.35782 | 1.87543 | 8411 ft | 303 kts | 72° |
| 2026-05-04 18:45 | 41.35943 | 1.90318 | 8870 ft | 302 kts | 102° |
| 2026-05-04 18:45 | 41.35480 | 1.93044 | 9391 ft | 302 kts | 108° |
| 2026-05-04 18:45 | 41.34948 | 1.95766 | 9918 ft | 305 kts | 108° |
| 2026-05-04 18:45 | 41.34431 | 1.98506 | 10266 ft | 315 kts | 107° |
| 2026-05-04 18:46 | 41.33898 | 2.01434 | 10489 ft | 328 kts | 107° |
| 2026-05-04 18:46 | 41.33368 | 2.04416 | 10685 ft | 342 kts | 107° |
| 2026-05-04 18:46 | 41.32816 | 2.07550 | 10896 ft | 354 kts | 107° |
| 2026-05-04 18:46 | 41.32246 | 2.10799 | 11099 ft | 366 kts | 107° |
| 2026-05-04 18:47 | 41.31658 | 2.14162 | 11296 ft | 378 kts | 106° |
| 2026-05-04 18:47 | 41.31052 | 2.17623 | 11519 ft | 388 kts | 106° |
| 2026-05-04 18:47 | 41.30436 | 2.21143 | 11889 ft | 393 kts | 107° |
| 2026-05-04 18:47 | 41.29813 | 2.24703 | 12342 ft | 396 kts | 107° |
| 2026-05-04 18:48 | 41.29190 | 2.28250 | 12780 ft | 399 kts | 107° |
| 2026-05-04 18:48 | 41.28555 | 2.31856 | 13223 ft | 402 kts | 107° |
| 2026-05-04 18:48 | 41.27915 | 2.35485 | 13674 ft | 404 kts | 107° |
| 2026-05-04 18:48 | 41.27269 | 2.39139 | 14081 ft | 406 kts | 107° |
| 2026-05-04 18:49 | 41.26616 | 2.42824 | 14458 ft | 410 kts | 107° |
| 2026-05-04 18:49 | 41.25959 | 2.46525 | 14831 ft | 413 kts | 107° |
| 2026-05-04 18:49 | 41.25296 | 2.50251 | 15223 ft | 416 kts | 107° |
| 2026-05-04 18:49 | 41.24627 | 2.54005 | 15625 ft | 419 kts | 107° |
| 2026-05-04 18:50 | 41.23950 | 2.57795 | 16027 ft | 421 kts | 107° |
| 2026-05-04 18:50 | 41.23278 | 2.61545 | 16405 ft | 424 kts | 107° |
| 2026-05-04 18:50 | 41.22594 | 2.65363 | 16805 ft | 427 kts | 107° |
| 2026-05-04 18:50 | 41.21902 | 2.69211 | 17154 ft | 430 kts | 107° |
| 2026-05-04 18:51 | 41.21202 | 2.73096 | 17520 ft | 433 kts | 107° |
| 2026-05-04 18:51 | 41.20498 | 2.76995 | 17898 ft | 436 kts | 107° |
| 2026-05-04 18:51 | 41.19788 | 2.80922 | 18271 ft | 438 kts | 107° |
| 2026-05-04 18:51 | 41.19073 | 2.84868 | 18602 ft | 441 kts | 107° |
| 2026-05-04 18:52 | 41.18353 | 2.88835 | 18943 ft | 443 kts | 107° |
| 2026-05-04 18:52 | 41.17870 | 2.91491 | 19178 ft | 445 kts | 107° |
| 2026-05-04 18:52 | 41.17139 | 2.95501 | 19525 ft | 448 kts | 107° |
| 2026-05-04 18:52 | 41.16164 | 3.00839 | 19991 ft | 451 kts | 108° |
| 2026-05-04 18:53 | 41.15420 | 3.04900 | 20348 ft | 453 kts | 108° |
| 2026-05-04 18:53 | 41.14914 | 3.07652 | 20595 ft | 455 kts | 107° |
| 2026-05-04 18:53 | 41.14162 | 3.11746 | 20963 ft | 457 kts | 108° |
| 2026-05-04 18:53 | 41.13404 | 3.15857 | 21310 ft | 460 kts | 108° |
| 2026-05-04 18:54 | 41.12651 | 3.19939 | 21664 ft | 463 kts | 108° |
| 2026-05-04 18:54 | 41.11881 | 3.24101 | 22009 ft | 466 kts | 108° |
| 2026-05-04 18:54 | 41.11104 | 3.28292 | 22372 ft | 469 kts | 108° |
| 2026-05-04 18:54 | 41.10321 | 3.32505 | 22708 ft | 471 kts | 108° |
| 2026-05-04 18:55 | 41.09532 | 3.36738 | 23062 ft | 474 kts | 108° |
| 2026-05-04 18:55 | 41.07937 | 3.45275 | 23672 ft | 480 kts | 108° |
| 2026-05-04 18:55 | 41.07127 | 3.49592 | 23913 ft | 483 kts | 108° |
| 2026-05-04 18:56 | 41.06313 | 3.53929 | 24221 ft | 485 kts | 108° |
| 2026-05-04 18:56 | 41.05509 | 3.58288 | 24521 ft | 487 kts | 108° |
| 2026-05-04 18:56 | 41.04736 | 3.62617 | 24818 ft | 490 kts | 108° |
| 2026-05-04 18:56 | 41.03961 | 3.67017 | 25116 ft | 492 kts | 108° |
| 2026-05-04 18:57 | 41.03184 | 3.71427 | 25415 ft | 493 kts | 108° |
| 2026-05-04 18:57 | 41.02398 | 3.75864 | 25705 ft | 495 kts | 108° |
| 2026-05-04 18:57 | 41.01605 | 3.80312 | 25981 ft | 497 kts | 108° |
| 2026-05-04 18:57 | 41.00803 | 3.84783 | 26224 ft | 499 kts | 108° |
| 2026-05-04 18:58 | 40.99996 | 3.89255 | 26501 ft | 501 kts | 108° |
| 2026-05-04 18:58 | 40.99179 | 3.93758 | 26781 ft | 503 kts | 108° |
| 2026-05-04 18:58 | 40.98359 | 3.98266 | 27059 ft | 505 kts | 108° |
| 2026-05-04 18:58 | 40.97531 | 4.02808 | 27324 ft | 507 kts | 108° |
| 2026-05-04 18:59 | 40.96701 | 4.07350 | 27597 ft | 509 kts | 108° |
| 2026-05-04 18:59 | 40.95865 | 4.11915 | 27870 ft | 511 kts | 108° |
| 2026-05-04 18:59 | 40.95038 | 4.16426 | 28131 ft | 513 kts | 108° |
| 2026-05-04 18:59 | 40.94194 | 4.21018 | 28337 ft | 515 kts | 109° |
| 2026-05-04 19:00 | 40.93340 | 4.25647 | 28533 ft | 518 kts | 109° |
| 2026-05-04 19:00 | 40.92482 | 4.30281 | 28779 ft | 519 kts | 109° |
| 2026-05-04 19:00 | 40.91619 | 4.34942 | 29020 ft | 521 kts | 109° |
| 2026-05-04 19:00 | 40.90754 | 4.39605 | 29254 ft | 523 kts | 109° |
| 2026-05-04 19:01 | 40.89895 | 4.44222 | 29476 ft | 524 kts | 109° |
| 2026-05-04 19:01 | 40.89023 | 4.48913 | 29689 ft | 526 kts | 109° |
| 2026-05-04 19:01 | 40.88148 | 4.53625 | 29886 ft | 527 kts | 109° |
| 2026-05-04 19:01 | 40.87268 | 4.58340 | 30057 ft | 529 kts | 109° |
| 2026-05-04 19:02 | 40.86383 | 4.63071 | 30276 ft | 529 kts | 110° |
| 2026-05-04 19:02 | 40.85671 | 4.67868 | 30465 ft | 534 kts | 103° |
| 2026-05-04 19:02 | 40.85155 | 4.72667 | 30672 ft | 535 kts | 103° |
| 2026-05-04 19:02 | 40.84676 | 4.77548 | 30876 ft | 536 kts | 102° |
| 2026-05-04 19:03 | 40.84221 | 4.82438 | 31080 ft | 536 kts | 102° |
| 2026-05-04 19:03 | 40.83776 | 4.87320 | 31270 ft | 536 kts | 102° |
| 2026-05-04 19:03 | 40.83330 | 4.92216 | 31474 ft | 536 kts | 102° |
| 2026-05-04 19:03 | 40.82881 | 4.97104 | 31624 ft | 536 kts | 102° |
| 2026-05-04 19:04 | 40.82424 | 5.02003 | 31779 ft | 536 kts | 102° |
| 2026-05-04 19:04 | 40.81962 | 5.06910 | 31918 ft | 537 kts | 102° |
| 2026-05-04 19:04 | 40.81027 | 5.16686 | 31944 ft | 542 kts | 102° |
| 2026-05-04 19:05 | 40.80078 | 5.26552 | 31949 ft | 541 kts | 102° |
| 2026-05-04 19:05 | 40.79120 | 5.36417 | 31948 ft | 541 kts | 102° |
| 2026-05-04 19:06 | 40.78154 | 5.46269 | 31956 ft | 540 kts | 102° |
| 2026-05-04 19:06 | 40.77186 | 5.56055 | 31955 ft | 541 kts | 102° |
| 2026-05-04 19:07 | 40.76204 | 5.65893 | 31969 ft | 541 kts | 102° |
| 2026-05-04 19:07 | 40.75211 | 5.75753 | 31962 ft | 541 kts | 102° |
| 2026-05-04 19:08 | 40.74213 | 5.85585 | 31971 ft | 540 kts | 102° |
| 2026-05-04 19:08 | 40.73210 | 5.95391 | 32126 ft | 538 kts | 102° |
| 2026-05-04 19:09 | 40.72715 | 6.00220 | 32410 ft | 536 kts | 102° |
| 2026-05-04 19:09 | 40.72212 | 6.05087 | 32630 ft | 534 kts | 102° |
| 2026-05-04 19:09 | 40.71705 | 6.09948 | 32779 ft | 534 kts | 102° |
| 2026-05-04 19:09 | 40.71195 | 6.14806 | 32944 ft | 534 kts | 102° |
| 2026-05-04 19:10 | 40.70171 | 6.24494 | 32978 ft | 539 kts | 102° |
| 2026-05-04 19:10 | 40.69134 | 6.34270 | 32980 ft | 538 kts | 102° |
| 2026-05-04 19:11 | 40.68089 | 6.44050 | 32982 ft | 538 kts | 102° |
| 2026-05-04 19:11 | 40.67036 | 6.53816 | 32982 ft | 537 kts | 102° |
| 2026-05-04 19:12 | 40.65444 | 6.68425 | 32990 ft | 537 kts | 102° |
| 2026-05-04 19:13 | 40.64373 | 6.78164 | 32992 ft | 537 kts | 102° |
| 2026-05-04 19:13 | 40.63298 | 6.87848 | 32993 ft | 537 kts | 102° |
| 2026-05-04 19:14 | 40.62209 | 6.97594 | 33002 ft | 538 kts | 102° |
| 2026-05-04 19:14 | 40.61111 | 7.07338 | 33008 ft | 538 kts | 102° |
| 2026-05-04 19:15 | 40.60012 | 7.17018 | 33014 ft | 538 kts | 102° |
| 2026-05-04 19:15 | 40.58898 | 7.26760 | 33009 ft | 538 kts | 102° |
| 2026-05-04 19:16 | 40.57775 | 7.36505 | 33010 ft | 538 kts | 102° |
| 2026-05-04 19:16 | 40.56743 | 7.46262 | 33128 ft | 538 kts | 96° |
| 2026-05-04 19:16 | 40.56766 | 7.51179 | 33418 ft | 538 kts | 88° |
| 2026-05-04 19:17 | 40.57060 | 7.56029 | 33624 ft | 538 kts | 86° |
| 2026-05-04 19:17 | 40.57440 | 7.60919 | 33749 ft | 538 kts | 85° |
| 2026-05-04 19:17 | 40.57864 | 7.65814 | 33872 ft | 538 kts | 85° |
| 2026-05-04 19:17 | 40.58304 | 7.70708 | 33993 ft | 538 kts | 85° |
| 2026-05-04 19:18 | 40.58745 | 7.75618 | 34020 ft | 540 kts | 85° |
| 2026-05-04 19:18 | 40.59608 | 7.85490 | 34020 ft | 544 kts | 85° |
| 2026-05-04 19:19 | 40.60441 | 7.95327 | 34023 ft | 544 kts | 85° |
| 2026-05-04 19:19 | 40.61266 | 8.05228 | 34023 ft | 543 kts | 85° |
| 2026-05-04 19:20 | 40.62077 | 8.15118 | 34029 ft | 543 kts | 85° |
| 2026-05-04 19:20 | 40.62881 | 8.25009 | 34022 ft | 542 kts | 85° |
| 2026-05-04 19:21 | 40.63668 | 8.34824 | 34012 ft | 542 kts | 85° |
| 2026-05-04 19:21 | 40.64453 | 8.44702 | 34034 ft | 542 kts | 85° |
| 2026-05-04 19:22 | 40.65230 | 8.54573 | 34035 ft | 542 kts | 85° |
| 2026-05-04 19:22 | 40.66000 | 8.64457 | 34041 ft | 542 kts | 85° |
| 2026-05-04 19:23 | 40.66761 | 8.74345 | 34035 ft | 542 kts | 85° |
| 2026-05-04 19:23 | 40.67508 | 8.84167 | 34046 ft | 542 kts | 85° |
| 2026-05-04 19:24 | 40.68252 | 8.94064 | 34042 ft | 542 kts | 85° |
| 2026-05-04 19:24 | 40.68988 | 9.03957 | 34046 ft | 542 kts | 85° |
| 2026-05-04 19:25 | 40.69710 | 9.13795 | 34048 ft | 542 kts | 85° |
| 2026-05-04 19:25 | 40.70429 | 9.23696 | 34048 ft | 542 kts | 85° |
| 2026-05-04 19:26 | 40.71133 | 9.33584 | 34053 ft | 542 kts | 85° |
| 2026-05-04 19:26 | 40.71836 | 9.43471 | 34054 ft | 542 kts | 85° |
| 2026-05-04 19:27 | 40.72533 | 9.53374 | 34049 ft | 542 kts | 85° |
| 2026-05-04 19:27 | 40.73218 | 9.63281 | 34060 ft | 542 kts | 85° |
| 2026-05-04 19:28 | 40.73889 | 9.73111 | 34052 ft | 540 kts | 85° |
| 2026-05-04 19:28 | 40.74556 | 9.82994 | 34055 ft | 540 kts | 85° |
| 2026-05-04 19:29 | 40.75213 | 9.92882 | 34064 ft | 540 kts | 85° |
| 2026-05-04 19:29 | 40.75859 | 10.02713 | 34062 ft | 540 kts | 85° |
| 2026-05-04 19:30 | 40.76500 | 10.12593 | 34065 ft | 541 kts | 85° |
| 2026-05-04 19:30 | 40.77133 | 10.22493 | 34061 ft | 540 kts | 85° |
| 2026-05-04 19:31 | 40.77757 | 10.32379 | 34082 ft | 539 kts | 85° |
| 2026-05-04 19:31 | 40.78367 | 10.42187 | 34073 ft | 539 kts | 85° |
| 2026-05-04 19:32 | 40.78973 | 10.52057 | 34075 ft | 539 kts | 85° |
| 2026-05-04 19:32 | 40.79570 | 10.61932 | 34078 ft | 539 kts | 85° |
| 2026-05-04 19:33 | 40.80157 | 10.71779 | 34082 ft | 537 kts | 85° |
| 2026-05-04 19:33 | 40.80736 | 10.81613 | 34079 ft | 537 kts | 85° |
| 2026-05-04 19:34 | 40.81302 | 10.91384 | 34088 ft | 537 kts | 85° |
| 2026-05-04 19:34 | 40.81864 | 11.01240 | 34089 ft | 537 kts | 85° |
| 2026-05-04 19:35 | 40.82418 | 11.11087 | 34100 ft | 537 kts | 85° |
| 2026-05-04 19:35 | 40.82963 | 11.20935 | 34099 ft | 537 kts | 85° |
| 2026-05-04 19:36 | 40.83500 | 11.30783 | 34101 ft | 537 kts | 85° |
| 2026-05-04 19:36 | 40.83820 | 11.40564 | 34097 ft | 535 kts | 94° |
| 2026-05-04 19:37 | 40.83244 | 11.50417 | 34102 ft | 535 kts | 96° |
| 2026-05-04 19:37 | 40.82504 | 11.60130 | 34104 ft | 535 kts | 96° |
| 2026-05-04 19:38 | 40.81727 | 11.69907 | 34111 ft | 535 kts | 96° |